sensor_id;sensor_type;location;lat;lon;timestamp;pressure;altitude;pressure_sealevel;temperature;humidity
19590;BME280;12231;42.782;23.388;2022-07-12T00:00:47;96012.75;;;15.05;77.03
19590;BME280;12231;42.782;23.388;2022-07-12T00:03:13;96011.22;;;15.02;76.51
19590;BME280;12231;42.782;23.388;2022-07-12T00:05:38;96009.22;;;15.06;77.22
19590;BME280;12231;42.782;23.388;2022-07-12T00:08:04;96013.03;;;15.13;77.72
19590;BME280;12231;42.782;23.388;2022-07-12T00:10:32;96012.28;;;14.87;76.60
19590;BME280;12231;42.782;23.388;2022-07-12T00:12:57;96008.22;;;14.96;77.80
19590;BME280;12231;42.782;23.388;2022-07-12T00:15:23;96017.16;;;14.92;76.38
19590;BME280;12231;42.782;23.388;2022-07-12T00:17:49;96015.72;;;14.88;77.29
19590;BME280;12231;42.782;23.388;2022-07-12T00:20:14;96018.00;;;14.92;78.19
19590;BME280;12231;42.782;23.388;2022-07-12T00:22:40;96012.81;;;14.80;77.50
19590;BME280;12231;42.782;23.388;2022-07-12T00:25:06;96020.91;;;14.75;76.45
19590;BME280;12231;42.782;23.388;2022-07-12T00:27:31;96025.47;;;14.72;76.79
19590;BME280;12231;42.782;23.388;2022-07-12T00:29:57;96029.34;;;14.66;76.56
19590;BME280;12231;42.782;23.388;2022-07-12T00:32:22;96022.06;;;14.59;76.23
19590;BME280;12231;42.782;23.388;2022-07-12T00:34:47;96020.63;;;14.55;77.22
19590;BME280;12231;42.782;23.388;2022-07-12T00:37:13;96017.81;;;14.58;77.27
19590;BME280;12231;42.782;23.388;2022-07-12T00:39:38;96016.78;;;14.60;77.67
19590;BME280;12231;42.782;23.388;2022-07-12T00:42:04;96017.28;;;14.65;77.97
19590;BME280;12231;42.782;23.388;2022-07-12T00:44:30;96014.28;;;14.59;78.05
19590;BME280;12231;42.782;23.388;2022-07-12T00:46:59;96017.09;;;14.43;77.49
19590;BME280;12231;42.782;23.388;2022-07-12T00:49:25;96009.84;;;14.48;78.54
19590;BME280;12231;42.782;23.388;2022-07-12T00:51:50;96008.91;;;14.49;78.23
19590;BME280;12231;42.782;23.388;2022-07-12T00:54:16;96010.78;;;14.60;79.20
19590;BME280;12231;42.782;23.388;2022-07-12T00:56:43;96004.53;;;14.62;78.75
19590;BME280;12231;42.782;23.388;2022-07-12T00:59:08;96010.78;;;14.60;77.70
19590;BME280;12231;42.782;23.388;2022-07-12T01:01:34;96005.59;;;14.60;77.57
19590;BME280;12231;42.782;23.388;2022-07-12T01:04:00;96005.81;;;14.57;76.80
19590;BME280;12231;42.782;23.388;2022-07-12T01:06:26;96010.00;;;14.08;76.73
19590;BME280;12231;42.782;23.388;2022-07-12T01:08:52;96016.94;;;14.07;76.72
19590;BME280;12231;42.782;23.388;2022-07-12T01:11:18;96020.91;;;14.13;78.60
19590;BME280;12231;42.782;23.388;2022-07-12T01:13:44;96019.22;;;14.12;78.00
19590;BME280;12231;42.782;23.388;2022-07-12T01:16:10;96016.72;;;14.10;77.32
19590;BME280;12231;42.782;23.388;2022-07-12T01:18:39;96022.22;;;14.06;77.64
19590;BME280;12231;42.782;23.388;2022-07-12T01:21:07;96022.44;;;14.03;78.07
19590;BME280;12231;42.782;23.388;2022-07-12T01:23:34;96015.47;;;13.91;77.13
19590;BME280;12231;42.782;23.388;2022-07-12T01:26:00;96014.44;;;13.81;78.11
19590;BME280;12231;42.782;23.388;2022-07-12T01:28:26;96008.94;;;13.85;78.66
19590;BME280;12231;42.782;23.388;2022-07-12T01:30:52;96014.22;;;13.84;77.19
19590;BME280;12231;42.782;23.388;2022-07-12T01:33:18;96012.75;;;13.79;78.66
19590;BME280;12231;42.782;23.388;2022-07-12T01:35:45;96019.78;;;13.77;77.74
19590;BME280;12231;42.782;23.388;2022-07-12T01:38:11;96021.84;;;13.72;78.31
19590;BME280;12231;42.782;23.388;2022-07-12T01:40:37;96012.53;;;13.82;78.59
19590;BME280;12231;42.782;23.388;2022-07-12T01:43:03;96019.19;;;13.47;78.59
19590;BME280;12231;42.782;23.388;2022-07-12T01:45:28;96012.00;;;13.77;79.50
19590;BME280;12231;42.782;23.388;2022-07-12T01:47:54;96001.59;;;13.92;79.90
19590;BME280;12231;42.782;23.388;2022-07-12T01:50:19;96012.50;;;13.97;78.66
19590;BME280;12231;42.782;23.388;2022-07-12T01:52:45;96006.38;;;14.10;79.96
19590;BME280;12231;42.782;23.388;2022-07-12T01:55:11;96009.47;;;14.03;77.19
19590;BME280;12231;42.782;23.388;2022-07-12T01:57:38;96003.66;;;13.87;76.51
19590;BME280;12231;42.782;23.388;2022-07-12T02:00:05;96006.81;;;13.38;75.76
19590;BME280;12231;42.782;23.388;2022-07-12T02:02:31;96007.03;;;13.09;77.30
19590;BME280;12231;42.782;23.388;2022-07-12T02:04:58;96010.78;;;13.17;78.15
19590;BME280;12231;42.782;23.388;2022-07-12T02:07:24;96009.47;;;13.24;79.13
19590;BME280;12231;42.782;23.388;2022-07-12T02:09:50;96004.94;;;13.28;79.30
19590;BME280;12231;42.782;23.388;2022-07-12T02:12:15;95999.88;;;13.39;79.83
19590;BME280;12231;42.782;23.388;2022-07-12T02:14:41;96008.94;;;13.46;80.16
19590;BME280;12231;42.782;23.388;2022-07-12T02:17:06;96000.88;;;13.50;79.54
19590;BME280;12231;42.782;23.388;2022-07-12T02:19:31;96005.09;;;13.51;79.85
19590;BME280;12231;42.782;23.388;2022-07-12T02:21:57;96009.50;;;13.63;80.80
19590;BME280;12231;42.782;23.388;2022-07-12T02:24:22;96013.25;;;13.72;80.48
19590;BME280;12231;42.782;23.388;2022-07-12T02:26:48;96006.41;;;13.71;78.29
19590;BME280;12231;42.782;23.388;2022-07-12T02:29:13;96011.69;;;13.69;78.85
19590;BME280;12231;42.782;23.388;2022-07-12T02:31:39;96009.31;;;13.79;79.70
19590;BME280;12231;42.782;23.388;2022-07-12T02:34:05;96015.56;;;13.89;79.79
19590;BME280;12231;42.782;23.388;2022-07-12T02:36:30;96013.00;;;14.02;80.24
19590;BME280;12231;42.782;23.388;2022-07-12T02:38:57;96011.66;;;14.09;79.05
19590;BME280;12231;42.782;23.388;2022-07-12T02:41:22;96018.00;;;14.17;79.23
19590;BME280;12231;42.782;23.388;2022-07-12T02:43:48;96019.66;;;14.18;78.74
19590;BME280;12231;42.782;23.388;2022-07-12T02:46:13;96013.22;;;14.24;78.58
19590;BME280;12231;42.782;23.388;2022-07-12T02:48:39;96017.53;;;14.37;78.53
19590;BME280;12231;42.782;23.388;2022-07-12T02:51:06;96019.69;;;14.56;78.93
19590;BME280;12231;42.782;23.388;2022-07-12T02:53:33;96017.50;;;15.11;77.70
19590;BME280;12231;42.782;23.388;2022-07-12T02:55:59;96017.56;;;15.58;75.54
19590;BME280;12231;42.782;23.388;2022-07-12T02:58:25;96021.41;;;15.29;70.45
19590;BME280;12231;42.782;23.388;2022-07-12T03:00:50;96025.59;;;14.58;70.50
19590;BME280;12231;42.782;23.388;2022-07-12T03:03:16;96026.50;;;14.07;71.57
19590;BME280;12231;42.782;23.388;2022-07-12T03:05:42;96034.66;;;13.61;73.00
19590;BME280;12231;42.782;23.388;2022-07-12T03:08:08;96036.09;;;13.26;77.19
19590;BME280;12231;42.782;23.388;2022-07-12T03:10:35;96034.53;;;13.77;80.31
19590;BME280;12231;42.782;23.388;2022-07-12T03:13:01;96038.97;;;13.75;80.34
19590;BME280;12231;42.782;23.388;2022-07-12T03:15:27;96048.91;;;13.81;79.96
19590;BME280;12231;42.782;23.388;2022-07-12T03:17:57;96048.56;;;14.00;79.83
19590;BME280;12231;42.782;23.388;2022-07-12T03:20:22;96046.50;;;14.17;79.91
19590;BME280;12231;42.782;23.388;2022-07-12T03:22:48;96048.69;;;14.23;79.54
19590;BME280;12231;42.782;23.388;2022-07-12T03:25:15;96061.41;;;14.28;79.50
19590;BME280;12231;42.782;23.388;2022-07-12T03:27:41;96064.00;;;14.40;79.70
19590;BME280;12231;42.782;23.388;2022-07-12T03:30:08;96066.38;;;14.31;76.76
19590;BME280;12231;42.782;23.388;2022-07-12T03:32:34;96073.31;;;14.30;75.72
19590;BME280;12231;42.782;23.388;2022-07-12T03:34:59;96063.28;;;14.38;76.82
19590;BME280;12231;42.782;23.388;2022-07-12T03:37:25;96066.59;;;14.40;75.73
19590;BME280;12231;42.782;23.388;2022-07-12T03:39:50;96057.16;;;14.52;76.59
19590;BME280;12231;42.782;23.388;2022-07-12T03:42:16;96062.13;;;14.55;75.10
19590;BME280;12231;42.782;23.388;2022-07-12T03:44:41;96056.63;;;14.84;75.10
19590;BME280;12231;42.782;23.388;2022-07-12T03:47:07;96058.50;;;15.31;74.54
19590;BME280;12231;42.782;23.388;2022-07-12T03:49:32;96056.34;;;15.85;73.30
19590;BME280;12231;42.782;23.388;2022-07-12T03:51:57;96054.31;;;16.12;69.94
19590;BME280;12231;42.782;23.388;2022-07-12T03:54:23;96060.97;;;16.62;67.29
19590;BME280;12231;42.782;23.388;2022-07-12T03:56:49;96059.44;;;17.14;66.08
19590;BME280;12231;42.782;23.388;2022-07-12T03:59:33;96051.13;;;17.53;62.82
19590;BME280;12231;42.782;23.388;2022-07-12T04:01:59;96047.06;;;18.03;62.15
19590;BME280;12231;42.782;23.388;2022-07-12T04:04:24;96054.88;;;18.55;61.04
19590;BME280;12231;42.782;23.388;2022-07-12T04:06:50;96050.97;;;19.00;57.99
19590;BME280;12231;42.782;23.388;2022-07-12T04:09:15;96049.22;;;19.41;56.08
19590;BME280;12231;42.782;23.388;2022-07-12T04:11:40;96051.09;;;19.78;55.08
19590;BME280;12231;42.782;23.388;2022-07-12T04:14:06;96056.50;;;20.15;54.16
19590;BME280;12231;42.782;23.388;2022-07-12T04:16:31;96053.31;;;20.40;53.73
19590;BME280;12231;42.782;23.388;2022-07-12T04:18:57;96059.16;;;20.99;52.43
19590;BME280;12231;42.782;23.388;2022-07-12T04:21:23;96053.78;;;21.55;50.65
19590;BME280;12231;42.782;23.388;2022-07-12T04:23:48;96064.00;;;22.03;48.96
19590;BME280;12231;42.782;23.388;2022-07-12T04:26:13;96059.34;;;22.32;47.96
19590;BME280;12231;42.782;23.388;2022-07-12T04:28:39;96058.16;;;22.44;48.11
19590;BME280;12231;42.782;23.388;2022-07-12T04:31:05;96059.19;;;22.94;47.18
19590;BME280;12231;42.782;23.388;2022-07-12T04:33:31;96067.19;;;23.10;45.83
19590;BME280;12231;42.782;23.388;2022-07-12T04:35:57;96059.47;;;22.83;46.47
19590;BME280;12231;42.782;23.388;2022-07-12T04:38:22;96061.00;;;23.53;45.76
19590;BME280;12231;42.782;23.388;2022-07-12T04:40:48;96057.19;;;23.89;44.94
19590;BME280;12231;42.782;23.388;2022-07-12T04:43:13;96063.81;;;24.17;44.46
19590;BME280;12231;42.782;23.388;2022-07-12T04:45:38;96062.38;;;24.38;44.55
19590;BME280;12231;42.782;23.388;2022-07-12T04:48:04;96065.84;;;24.55;42.85
19590;BME280;12231;42.782;23.388;2022-07-12T04:50:30;96061.94;;;25.30;41.67
19590;BME280;12231;42.782;23.388;2022-07-12T04:52:55;96064.81;;;25.67;40.88
19590;BME280;12231;42.782;23.388;2022-07-12T04:55:20;96060.94;;;25.31;41.64
19590;BME280;12231;42.782;23.388;2022-07-12T04:57:46;96067.00;;;24.85;42.20
19590;BME280;12231;42.782;23.388;2022-07-12T05:00:11;96067.56;;;25.43;41.66
19590;BME280;12231;42.782;23.388;2022-07-12T05:02:37;96062.44;;;25.33;43.86
19590;BME280;12231;42.782;23.388;2022-07-12T05:05:03;96062.69;;;25.62;42.87
19590;BME280;12231;42.782;23.388;2022-07-12T05:07:28;96064.09;;;25.26;43.75
19590;BME280;12231;42.782;23.388;2022-07-12T05:09:54;96077.38;;;25.02;43.36
19590;BME280;12231;42.782;23.388;2022-07-12T05:12:20;96076.97;;;25.84;41.97
19590;BME280;12231;42.782;23.388;2022-07-12T05:14:45;96073.88;;;25.73;41.97
19590;BME280;12231;42.782;23.388;2022-07-12T05:17:11;96073.00;;;25.33;42.76
19590;BME280;12231;42.782;23.388;2022-07-12T05:19:39;96065.81;;;26.27;40.79
19590;BME280;12231;42.782;23.388;2022-07-12T05:22:05;96069.34;;;26.42;40.76
19590;BME280;12231;42.782;23.388;2022-07-12T05:24:30;96060.56;;;27.02;38.89
19590;BME280;12231;42.782;23.388;2022-07-12T05:26:56;96063.88;;;27.04;39.18
19590;BME280;12231;42.782;23.388;2022-07-12T05:29:22;96066.19;;;27.65;37.95
19590;BME280;12231;42.782;23.388;2022-07-12T05:31:47;96063.59;;;27.86;37.77
19590;BME280;12231;42.782;23.388;2022-07-12T05:34:13;96065.09;;;29.08;35.66
19590;BME280;12231;42.782;23.388;2022-07-12T05:36:39;96061.13;;;29.60;34.39
19590;BME280;12231;42.782;23.388;2022-07-12T05:39:04;96062.28;;;29.50;33.78
19590;BME280;12231;42.782;23.388;2022-07-12T05:41:30;96061.63;;;30.23;31.12
19590;BME280;12231;42.782;23.388;2022-07-12T05:43:56;96061.72;;;30.02;31.90
19590;BME280;12231;42.782;23.388;2022-07-12T05:46:21;96056.03;;;30.05;32.61
19590;BME280;12231;42.782;23.388;2022-07-12T05:48:47;96056.59;;;31.07;30.57
19590;BME280;12231;42.782;23.388;2022-07-12T05:51:13;96053.72;;;31.08;30.18
19590;BME280;12231;42.782;23.388;2022-07-12T05:53:57;96051.81;;;31.61;29.93
19590;BME280;12231;42.782;23.388;2022-07-12T05:56:22;96059.25;;;31.00;30.78
19590;BME280;12231;42.782;23.388;2022-07-12T05:58:48;96052.34;;;31.95;29.47
19590;BME280;12231;42.782;23.388;2022-07-12T06:01:13;96049.25;;;32.36;28.98
19590;BME280;12231;42.782;23.388;2022-07-12T06:03:39;96050.59;;;32.14;29.12
19590;BME280;12231;42.782;23.388;2022-07-12T06:06:04;96052.84;;;32.55;28.18
19590;BME280;12231;42.782;23.388;2022-07-12T06:08:30;96049.91;;;33.97;27.11
19590;BME280;12231;42.782;23.388;2022-07-12T06:10:56;96048.75;;;34.94;26.91
19590;BME280;12231;42.782;23.388;2022-07-12T06:13:21;96040.88;;;34.81;25.81
19590;BME280;12231;42.782;23.388;2022-07-12T06:15:47;96043.50;;;34.99;26.49
19590;BME280;12231;42.782;23.388;2022-07-12T06:18:12;96043.38;;;35.98;24.77
19590;BME280;12231;42.782;23.388;2022-07-12T06:20:38;96042.38;;;36.15;24.49
19590;BME280;12231;42.782;23.388;2022-07-12T06:23:04;96042.94;;;35.89;24.38
19590;BME280;12231;42.782;23.388;2022-07-12T06:25:29;96039.59;;;35.13;24.31
19590;BME280;12231;42.782;23.388;2022-07-12T06:27:54;96030.41;;;36.62;24.18
19590;BME280;12231;42.782;23.388;2022-07-12T06:30:21;96027.13;;;37.60;23.05
19590;BME280;12231;42.782;23.388;2022-07-12T06:32:48;96037.81;;;37.55;22.92
19590;BME280;12231;42.782;23.388;2022-07-12T06:35:14;96038.63;;;34.96;25.09
19590;BME280;12231;42.782;23.388;2022-07-12T06:37:41;96034.94;;;33.72;27.24
19590;BME280;12231;42.782;23.388;2022-07-12T06:40:07;96036.53;;;32.63;28.58
19590;BME280;12231;42.782;23.388;2022-07-12T06:42:33;96038.19;;;30.06;32.00
19590;BME280;12231;42.782;23.388;2022-07-12T06:44:59;96033.03;;;32.38;29.96
19590;BME280;12231;42.782;23.388;2022-07-12T06:47:24;96035.00;;;32.80;29.04
19590;BME280;12231;42.782;23.388;2022-07-12T06:49:50;96035.25;;;32.72;28.97
19590;BME280;12231;42.782;23.388;2022-07-12T06:52:15;96032.56;;;33.46;28.23
19590;BME280;12231;42.782;23.388;2022-07-12T06:54:41;96015.91;;;35.10;26.01
19590;BME280;12231;42.782;23.388;2022-07-12T06:57:07;96018.28;;;36.32;24.91
19590;BME280;12231;42.782;23.388;2022-07-12T06:59:32;96019.97;;;36.66;25.21
19590;BME280;12231;42.782;23.388;2022-07-12T07:01:58;96018.72;;;36.85;24.02
19590;BME280;12231;42.782;23.388;2022-07-12T07:04:24;96019.09;;;36.77;24.28
19590;BME280;12231;42.782;23.388;2022-07-12T07:06:50;96021.22;;;34.87;25.81
19590;BME280;12231;42.782;23.388;2022-07-12T07:09:15;96018.00;;;33.42;26.04
19590;BME280;12231;42.782;23.388;2022-07-12T07:11:41;96014.97;;;30.34;30.56
19590;BME280;12231;42.782;23.388;2022-07-12T07:14:07;96013.59;;;33.29;28.62
19590;BME280;12231;42.782;23.388;2022-07-12T07:16:32;96011.94;;;33.28;26.97
19590;BME280;12231;42.782;23.388;2022-07-12T07:18:58;96007.16;;;34.20;26.07
19590;BME280;12231;42.782;23.388;2022-07-12T07:21:23;96014.50;;;33.77;26.11
19590;BME280;12231;42.782;23.388;2022-07-12T07:23:49;96011.16;;;33.27;27.08
19590;BME280;12231;42.782;23.388;2022-07-12T07:26:15;96020.16;;;33.51;27.41
19590;BME280;12231;42.782;23.388;2022-07-12T07:28:40;96006.09;;;35.50;25.77
19590;BME280;12231;42.782;23.388;2022-07-12T07:31:25;96013.69;;;32.42;28.86
19590;BME280;12231;42.782;23.388;2022-07-12T07:33:50;96006.09;;;35.50;25.74
19590;BME280;12231;42.782;23.388;2022-07-12T07:36:16;96010.47;;;30.41;31.11
19590;BME280;12231;42.782;23.388;2022-07-12T07:38:41;96003.94;;;32.79;28.45
19590;BME280;12231;42.782;23.388;2022-07-12T07:41:07;96001.44;;;34.99;24.91
19590;BME280;12231;42.782;23.388;2022-07-12T07:43:32;96001.00;;;35.88;24.83
19590;BME280;12231;42.782;23.388;2022-07-12T07:45:58;95994.56;;;37.06;22.92
19590;BME280;12231;42.782;23.388;2022-07-12T07:48:24;96001.00;;;34.61;25.40
19590;BME280;12231;42.782;23.388;2022-07-12T07:50:50;95994.00;;;36.88;23.12
19590;BME280;12231;42.782;23.388;2022-07-12T07:53:15;95992.03;;;31.75;29.27
19590;BME280;12231;42.782;23.388;2022-07-12T07:55:40;95998.09;;;32.70;27.24
19590;BME280;12231;42.782;23.388;2022-07-12T07:58:06;95984.03;;;33.96;27.13
19590;BME280;12231;42.782;23.388;2022-07-12T08:00:32;95983.13;;;35.94;25.17
19590;BME280;12231;42.782;23.388;2022-07-12T08:02:58;95986.22;;;37.41;22.71
19590;BME280;12231;42.782;23.388;2022-07-12T08:05:23;95986.56;;;36.62;22.47
19590;BME280;12231;42.782;23.388;2022-07-12T08:07:49;95984.75;;;35.32;23.82
19590;BME280;12231;42.782;23.388;2022-07-12T08:10:15;95990.19;;;32.57;25.81
19590;BME280;12231;42.782;23.388;2022-07-12T08:12:40;95995.34;;;30.94;28.26
19590;BME280;12231;42.782;23.388;2022-07-12T08:15:06;95985.19;;;30.04;29.54
19590;BME280;12231;42.782;23.388;2022-07-12T08:17:31;95990.44;;;29.72;31.36
19590;BME280;12231;42.782;23.388;2022-07-12T08:19:57;95974.53;;;29.37;31.71
19590;BME280;12231;42.782;23.388;2022-07-12T08:22:23;95979.06;;;29.91;31.75
19590;BME280;12231;42.782;23.388;2022-07-12T08:24:48;95977.78;;;29.80;31.85
19590;BME280;12231;42.782;23.388;2022-07-12T08:27:15;95976.97;;;29.39;29.89
19590;BME280;12231;42.782;23.388;2022-07-12T08:29:40;95983.34;;;28.76;31.50
19590;BME280;12231;42.782;23.388;2022-07-12T08:32:06;95974.06;;;29.27;32.17
19590;BME280;12231;42.782;23.388;2022-07-12T08:34:33;95971.56;;;30.53;31.36
19590;BME280;12231;42.782;23.388;2022-07-12T08:36:58;95964.22;;;31.64;28.60
19590;BME280;12231;42.782;23.388;2022-07-12T08:39:24;95958.56;;;31.92;28.28
19590;BME280;12231;42.782;23.388;2022-07-12T08:41:49;95966.47;;;32.67;27.70
19590;BME280;12231;42.782;23.388;2022-07-12T08:44:14;95962.38;;;32.34;26.55
19590;BME280;12231;42.782;23.388;2022-07-12T08:46:40;95956.69;;;31.48;27.73
19590;BME280;12231;42.782;23.388;2022-07-12T08:49:06;95951.13;;;31.56;27.59
19590;BME280;12231;42.782;23.388;2022-07-12T08:51:35;95958.19;;;30.14;30.35
19590;BME280;12231;42.782;23.388;2022-07-12T08:54:07;95950.75;;;29.70;30.67
19590;BME280;12231;42.782;23.388;2022-07-12T08:56:35;95955.34;;;29.96;30.56
19590;BME280;12231;42.782;23.388;2022-07-12T09:04:30;95958.72;;;28.61;33.63
19590;BME280;12231;42.782;23.388;2022-07-12T09:06:55;95949.91;;;28.12;33.83
19590;BME280;12231;42.782;23.388;2022-07-12T09:11:53;95950.00;;;29.83;31.95
19590;BME280;12231;42.782;23.388;2022-07-12T09:14:19;95951.91;;;30.73;30.51
19590;BME280;12231;42.782;23.388;2022-07-12T09:17:01;95947.59;;;30.86;29.25
19590;BME280;12231;42.782;23.388;2022-07-12T09:19:26;95939.63;;;30.79;27.49
19590;BME280;12231;42.782;23.388;2022-07-12T09:21:53;95942.28;;;30.92;27.51
19590;BME280;12231;42.782;23.388;2022-07-12T09:24:24;95936.66;;;31.77;28.04
19590;BME280;12231;42.782;23.388;2022-07-12T09:26:53;95939.50;;;31.38;28.53
19590;BME280;12231;42.782;23.388;2022-07-12T09:29:21;95931.72;;;31.80;28.20
19590;BME280;12231;42.782;23.388;2022-07-12T09:31:48;95933.47;;;31.99;26.35
19590;BME280;12231;42.782;23.388;2022-07-12T09:34:33;95936.97;;;30.59;28.96
19590;BME280;12231;42.782;23.388;2022-07-12T09:37:18;95932.88;;;30.44;30.65
19590;BME280;12231;42.782;23.388;2022-07-12T09:39:43;95931.00;;;30.12;30.30
19590;BME280;12231;42.782;23.388;2022-07-12T09:42:10;95927.81;;;31.45;29.21
19590;BME280;12231;42.782;23.388;2022-07-12T09:44:40;95929.78;;;32.25;27.36
19590;BME280;12231;42.782;23.388;2022-07-12T09:47:09;95920.00;;;32.93;27.66
19590;BME280;12231;42.782;23.388;2022-07-12T09:49:42;95916.38;;;33.42;26.06
19590;BME280;12231;42.782;23.388;2022-07-12T09:52:28;95942.50;;;28.50;30.12
19590;BME280;12231;42.782;23.388;2022-07-12T09:54:55;95940.66;;;27.66;32.57
19590;BME280;12231;42.782;23.388;2022-07-12T09:57:26;95936.00;;;27.68;33.30
19590;BME280;12231;42.782;23.388;2022-07-12T09:59:52;95931.94;;;28.35;33.07
19590;BME280;12231;42.782;23.388;2022-07-12T10:02:19;95922.03;;;29.05;31.11
19590;BME280;12231;42.782;23.388;2022-07-12T10:04:47;95928.88;;;29.75;30.52
19590;BME280;12231;42.782;23.388;2022-07-12T10:07:14;95923.41;;;28.95;31.25
19590;BME280;12231;42.782;23.388;2022-07-12T10:09:45;95936.56;;;28.48;32.21
19590;BME280;12231;42.782;23.388;2022-07-12T10:12:13;95926.31;;;28.72;32.91
19590;BME280;12231;42.782;23.388;2022-07-12T10:14:41;95936.19;;;28.51;32.25
19590;BME280;12231;42.782;23.388;2022-07-12T10:17:08;95918.94;;;29.42;31.60
19590;BME280;12231;42.782;23.388;2022-07-12T10:19:37;95926.97;;;29.55;29.77
19590;BME280;12231;42.782;23.388;2022-07-12T10:22:07;95920.28;;;28.30;31.87
19590;BME280;12231;42.782;23.388;2022-07-12T10:32:34;95925.50;;;26.29;35.37
19590;BME280;12231;42.782;23.388;2022-07-12T10:35:05;95904.19;;;27.18;34.68
19590;BME280;12231;42.782;23.388;2022-07-12T10:37:32;95912.94;;;27.68;34.21
19590;BME280;12231;42.782;23.388;2022-07-12T10:40:36;95911.03;;;27.41;33.39
19590;BME280;12231;42.782;23.388;2022-07-12T10:45:50;95902.66;;;27.59;33.02
19590;BME280;12231;42.782;23.388;2022-07-12T10:56:22;95900.63;;;27.96;32.49
19590;BME280;12231;42.782;23.388;2022-07-12T10:58:58;95906.66;;;27.69;32.65
19590;BME280;12231;42.782;23.388;2022-07-12T11:01:29;95903.19;;;27.69;34.97
19590;BME280;12231;42.782;23.388;2022-07-12T11:06:23;95910.41;;;27.60;35.42
19590;BME280;12231;42.782;23.388;2022-07-12T11:08:59;95903.69;;;27.58;34.23
19590;BME280;12231;42.782;23.388;2022-07-12T11:11:30;95897.88;;;27.69;34.01
19590;BME280;12231;42.782;23.388;2022-07-12T11:13:57;95903.94;;;27.13;35.43
19590;BME280;12231;42.782;23.388;2022-07-12T11:16:24;95906.50;;;26.77;35.25
19590;BME280;12231;42.782;23.388;2022-07-12T11:18:51;95901.66;;;27.10;35.86
19590;BME280;12231;42.782;23.388;2022-07-12T11:21:17;95896.97;;;27.26;35.48
19590;BME280;12231;42.782;23.388;2022-07-12T11:23:42;95909.81;;;27.44;34.67
19590;BME280;12231;42.782;23.388;2022-07-12T11:26:10;95901.06;;;28.00;34.27
19590;BME280;12231;42.782;23.388;2022-07-12T11:28:36;95902.53;;;28.30;35.48
19590;BME280;12231;42.782;23.388;2022-07-12T11:31:09;95899.38;;;26.92;32.63
19590;BME280;12231;42.782;23.388;2022-07-12T11:33:37;95904.91;;;27.41;32.88
19590;BME280;12231;42.782;23.388;2022-07-12T11:36:05;95895.41;;;27.88;34.35
19590;BME280;12231;42.782;23.388;2022-07-12T11:38:32;95897.13;;;27.96;34.49
19590;BME280;12231;42.782;23.388;2022-07-12T11:40:58;95883.03;;;27.89;33.32
19590;BME280;12231;42.782;23.388;2022-07-12T11:43:25;95887.28;;;28.11;35.21
19590;BME280;12231;42.782;23.388;2022-07-12T11:45:51;95889.00;;;27.97;33.58
19590;BME280;12231;42.782;23.388;2022-07-12T11:48:18;95882.69;;;27.56;33.23
19590;BME280;12231;42.782;23.388;2022-07-12T11:50:43;95880.25;;;27.40;33.69
19590;BME280;12231;42.782;23.388;2022-07-12T11:53:23;95881.53;;;27.65;33.06
19590;BME280;12231;42.782;23.388;2022-07-12T11:55:50;95874.84;;;27.48;32.30
19590;BME280;12231;42.782;23.388;2022-07-12T11:58:17;95869.97;;;27.02;33.68
19590;BME280;12231;42.782;23.388;2022-07-12T12:00:44;95861.28;;;26.86;32.85
19590;BME280;12231;42.782;23.388;2022-07-12T12:03:10;95869.81;;;27.03;32.47
19590;BME280;12231;42.782;23.388;2022-07-12T12:05:36;95858.22;;;27.04;33.40
19590;BME280;12231;42.782;23.388;2022-07-12T12:08:06;95867.50;;;27.15;33.01
19590;BME280;12231;42.782;23.388;2022-07-12T12:10:32;95866.88;;;26.54;34.65
19590;BME280;12231;42.782;23.388;2022-07-12T12:12:59;95862.13;;;25.61;35.49
19590;BME280;12231;42.782;23.388;2022-07-12T12:15:32;95859.81;;;25.35;35.87
19590;BME280;12231;42.782;23.388;2022-07-12T12:18:03;95864.22;;;26.25;35.27
19590;BME280;12231;42.782;23.388;2022-07-12T12:20:39;95853.03;;;26.96;33.61
19590;BME280;12231;42.782;23.388;2022-07-12T12:23:15;95856.78;;;26.87;35.05
19590;BME280;12231;42.782;23.388;2022-07-12T12:25:40;95857.09;;;27.28;34.72
19590;BME280;12231;42.782;23.388;2022-07-12T12:28:06;95851.81;;;27.70;33.79
19590;BME280;12231;42.782;23.388;2022-07-12T12:30:34;95857.28;;;27.68;33.29
19590;BME280;12231;42.782;23.388;2022-07-12T12:35:37;95847.41;;;27.77;34.12
19590;BME280;12231;42.782;23.388;2022-07-12T12:40:35;95851.94;;;27.62;34.06
19590;BME280;12231;42.782;23.388;2022-07-12T12:43:08;95848.66;;;27.39;34.21
19590;BME280;12231;42.782;23.388;2022-07-12T12:45:34;95855.66;;;27.11;34.28
19590;BME280;12231;42.782;23.388;2022-07-12T12:48:02;95849.16;;;27.49;33.74
19590;BME280;12231;42.782;23.388;2022-07-12T12:50:44;95845.63;;;26.62;34.08
19590;BME280;12231;42.782;23.388;2022-07-12T12:53:14;95852.50;;;26.28;36.80
19590;BME280;12231;42.782;23.388;2022-07-12T12:55:41;95853.88;;;26.82;35.13
19590;BME280;12231;42.782;23.388;2022-07-12T12:58:08;95859.03;;;26.32;35.24
19590;BME280;12231;42.782;23.388;2022-07-12T13:00:36;95854.97;;;26.44;36.25
19590;BME280;12231;42.782;23.388;2022-07-12T13:03:10;95851.81;;;27.13;35.23
19590;BME280;12231;42.782;23.388;2022-07-12T13:05:36;95840.28;;;26.85;35.82
19590;BME280;12231;42.782;23.388;2022-07-12T13:08:03;95845.13;;;26.01;36.54
19590;BME280;12231;42.782;23.388;2022-07-12T13:10:29;95847.69;;;25.49;37.31
19590;BME280;12231;42.782;23.388;2022-07-12T13:12:56;95845.97;;;25.79;36.63
19590;BME280;12231;42.782;23.388;2022-07-12T13:15:22;95853.56;;;26.19;37.68
19590;BME280;12231;42.782;23.388;2022-07-12T13:17:48;95840.97;;;26.21;35.58
19590;BME280;12231;42.782;23.388;2022-07-12T13:20:14;95846.47;;;26.48;36.62
19590;BME280;12231;42.782;23.388;2022-07-12T13:22:40;95839.72;;;26.31;36.76